Time;durP1;ratioP1;P1;durP2;ratioP2;P2;SDS_P1;SDS_P2;PMS_P1;PMS_P2;Temp;Humidity;BMP_temperature;BMP_pressure;BME280_temperature;BME280_humidity;BME280_pressure;Samples;Min_cycle;Max_cycle;Signal;HPM_P1;HPM_P2
2023/12/12 00:01:54;;;;;;;0.40;0.40;;;;;;;2.86;95.50;96773.81;5087897;28;20060;-67
2023/12/12 00:04:21;;;;;;;0.30;0.30;;;;;;;2.58;94.90;96732.38;5067358;28;20061;-66
2023/12/12 00:06:47;;;;;;;0.35;0.35;;;;;;;3.00;94.86;96777.13;5067287;28;20109;-66
2023/12/12 00:09:14;;;;;;;0.40;0.40;;;;;;;2.65;94.65;96731.88;5065927;28;20052;-65
2023/12/12 00:11:41;;;;;;;0.30;0.30;;;;;;;3.04;94.43;96780.78;5082698;28;20052;-65
2023/12/12 00:14:08;;;;;;;0.32;0.32;;;;;;;1.90;94.13;96606.13;5066941;28;20144;-66
2023/12/12 00:16:34;;;;;;;0.40;0.40;;;;;;;3.06;93.83;96792.22;5067075;28;20052;-65
2023/12/12 00:19:01;;;;;;;0.30;0.30;;;;;;;3.01;92.69;96784.19;5066993;28;20149;-66
2023/12/12 00:21:29;;;;;;;0.40;0.40;;;;;;;2.77;94.43;96751.13;5065168;28;20067;-65
2023/12/12 00:23:55;;;;;;;0.40;0.40;;;;;;;3.08;94.54;96806.38;5066641;28;20055;-65
2023/12/12 00:26:22;;;;;;;0.40;0.40;;;;;;;2.80;94.46;96755.94;5067323;28;20067;-65
2023/12/12 00:28:49;;;;;;;0.40;0.40;;;;;;;3.13;95.11;96780.75;5067019;28;20056;-65
2023/12/12 00:31:16;;;;;;;0.40;0.40;;;;;;;2.56;95.54;96673.72;5067180;28;20059;-65
2023/12/12 00:33:43;;;;;;;0.40;0.40;;;;;;;2.19;95.61;96619.84;5065122;28;20098;-65
2023/12/12 00:36:09;;;;;;;0.40;0.40;;;;;;;1.96;95.29;96551.00;5084622;28;20048;-66
2023/12/12 00:38:36;;;;;;;0.40;0.40;;;;;;;2.74;95.82;96677.97;5086894;28;20052;-65
2023/12/12 00:41:04;;;;;;;0.40;0.40;;;;;;;3.06;96.10;96732.03;5085656;28;20427;-65
2023/12/12 00:43:31;;;;;;;0.30;0.30;;;;;;;3.39;95.31;96768.53;5085264;28;20060;-66
2023/12/12 00:45:58;;;;;;;0.40;0.40;;;;;;;2.97;94.47;96676.56;5086578;28;20064;-65
2023/12/12 00:48:24;;;;;;;0.40;0.40;;;;;;;3.43;94.12;96758.53;5085573;28;20052;-65
2023/12/12 00:50:51;;;;;;;0.30;0.30;;;;;;;3.47;94.35;96781.38;5086808;28;20169;-66
2023/12/12 00:53:18;;;;;;;0.32;0.32;;;;;;;2.83;96.24;96771.69;5085485;28;20059;-65
2023/12/12 00:55:45;;;;;;;0.40;0.40;;;;;;;2.71;99.21;96763.38;5086638;28;20048;-65
2023/12/12 00:58:12;;;;;;;0.40;0.40;;;;;;;2.78;96.13;96747.28;5086748;28;20052;-66
2023/12/12 01:00:38;;;;;;;0.30;0.30;;;;;;;1.82;97.99;96631.53;5086901;28;20052;-65
2023/12/12 01:03:05;;;;;;;0.35;0.35;;;;;;;2.71;97.85;96730.56;5086598;28;20048;-65
2023/12/12 01:05:32;;;;;;;0.30;0.30;;;;;;;2.50;97.49;96740.59;5086095;28;20052;-66
2023/12/12 01:07:59;;;;;;;0.30;0.30;;;;;;;2.86;97.37;96719.88;5086871;28;20432;-65
2023/12/12 01:10:26;;;;;;;0.40;0.40;;;;;;;3.10;97.39;96754.84;5084873;28;20407;-66
2023/12/12 01:12:52;;;;;;;0.30;0.30;;;;;;;3.14;97.01;96744.88;5084895;28;20125;-66
2023/12/12 01:15:19;;;;;;;0.40;0.40;;;;;;;2.83;96.70;96697.84;5084525;28;20157;-66
2023/12/12 01:17:46;;;;;;;0.30;0.30;;;;;;;2.22;93.98;96575.47;5086646;28;20416;-66
2023/12/12 01:20:13;;;;;;;0.38;0.38;;;;;;;3.36;94.48;96763.75;5086086;28;20048;-68
2023/12/12 01:22:43;;;;;;;0.40;0.40;;;;;;;2.55;95.67;96677.56;5083197;28;20052;-65
2023/12/12 01:25:10;;;;;;;0.30;0.30;;;;;;;3.24;94.71;96754.63;5086133;28;20135;-66
2023/12/12 01:27:36;;;;;;;0.40;0.40;;;;;;;3.36;95.45;96758.25;5086014;28;20510;-66
2023/12/12 01:30:04;;;;;;;0.40;0.40;;;;;;;3.35;95.64;96732.00;5085735;28;20534;-65
2023/12/12 01:32:31;;;;;;;0.40;0.40;;;;;;;3.41;96.39;96741.66;5084523;28;20052;-65
2023/12/12 01:34:57;;;;;;;0.40;0.40;;;;;;;3.54;96.01;96732.38;5085733;28;20514;-65
2023/12/12 01:37:24;;;;;;;0.40;0.40;;;;;;;3.05;95.59;96653.84;5086073;28;20056;-68
2023/12/12 01:39:51;;;;;;;0.40;0.40;;;;;;;3.55;96.48;96727.69;5085463;28;20055;-65
2023/12/12 01:42:18;;;;;;;0.40;0.40;;;;;;;3.30;96.51;96723.19;5083895;28;20064;-65
2023/12/12 01:44:45;;;;;;;0.40;0.40;;;;;;;3.34;94.52;96711.25;5085178;28;20052;-67
2023/12/12 01:47:11;;;;;;;0.40;0.40;;;;;;;3.24;94.71;96699.91;5085126;28;20055;-65
2023/12/12 01:49:38;;;;;;;0.40;0.40;;;;;;;3.72;95.03;96765.91;5084141;28;20492;-63
2023/12/12 01:52:07;;;;;;;0.40;0.40;;;;;;;3.79;94.45;96761.53;5085226;28;20087;-64
2023/12/12 01:54:39;;;;;;;0.40;0.40;;;;;;;3.83;93.81;96746.00;5083839;28;20487;-64
2023/12/12 01:57:08;;;;;;;0.50;0.50;;;;;;;3.44;93.64;96677.22;5083654;28;20051;-65
2023/12/12 01:59:36;;;;;;;0.30;0.30;;;;;;;3.58;94.05;96710.59;5084075;28;20048;-65
2023/12/12 02:02:03;;;;;;;0.40;0.40;;;;;;;3.77;93.80;96730.91;5076910;28;20056;-64
2023/12/12 02:04:30;;;;;;;0.50;0.50;;;;;;;3.47;94.50;96693.78;5083763;28;20078;-63
2023/12/12 02:07:02;;;;;;;0.40;0.40;;;;;;;3.15;94.88;96669.84;5083716;28;20673;-63
2023/12/12 02:09:30;;;;;;;0.40;0.40;;;;;;;3.67;95.83;96736.78;5083681;28;20059;-64
2023/12/12 02:11:57;;;;;;;0.38;0.38;;;;;;;3.83;95.10;96718.63;5085343;28;20044;-64
2023/12/12 02:14:24;;;;;;;0.40;0.40;;;;;;;3.71;95.49;96695.84;5084858;28;20051;-66
2023/12/12 02:16:50;;;;;;;0.40;0.40;;;;;;;2.72;95.33;96551.69;5080334;28;20082;-64
2023/12/12 02:19:17;;;;;;;0.40;0.40;;;;;;;3.62;96.95;96701.38;5094231;28;20146;-64
2023/12/12 02:21:44;;;;;;;0.40;0.40;;;;;;;3.59;97.97;96715.75;5084688;28;20438;-64
2023/12/12 02:24:11;;;;;;;0.40;0.40;;;;;;;3.50;99.21;96719.69;5083364;28;20044;-63
2023/12/12 02:26:38;;;;;;;0.40;0.40;;;;;;;3.57;100.00;96698.88;5083135;28;20051;-63
2023/12/12 02:29:05;;;;;;;0.30;0.30;;;;;;;3.54;100.00;96694.03;5084401;28;20048;-63
2023/12/12 02:31:32;;;;;;;0.40;0.40;;;;;;;3.79;100.00;96679.34;5084638;28;20077;-64
2023/12/12 02:33:59;;;;;;;0.40;0.40;;;;;;;3.69;100.00;96657.84;5083449;28;20548;-63
2023/12/12 02:36:26;;;;;;;0.40;0.40;;;;;;;3.96;99.89;96664.69;5083194;28;20083;-64
2023/12/12 02:38:53;;;;;;;0.40;0.40;;;;;;;3.29;100.00;96647.72;5083068;28;20051;-63
2023/12/12 02:41:19;;;;;;;0.30;0.30;;;;;;;2.89;100.00;96573.50;5082942;28;20048;-63
2023/12/12 02:43:46;;;;;;;0.40;0.40;;;;;;;2.69;100.00;96530.50;5082555;28;20498;-64
2023/12/12 02:46:13;;;;;;;0.30;0.30;;;;;;;3.23;100.00;96633.41;5084440;28;20059;-62
2023/12/12 02:48:40;;;;;;;0.40;0.40;;;;;;;3.36;100.00;96643.31;5084569;28;20655;-63
2023/12/12 02:51:06;;;;;;;0.40;0.40;;;;;;;3.50;100.00;96659.44;5084424;28;20132;-65
2023/12/12 02:53:33;;;;;;;0.40;0.40;;;;;;;3.67;100.00;96682.00;5084243;28;20420;-63
2023/12/12 02:56:00;;;;;;;0.40;0.40;;;;;;;3.44;100.00;96678.03;5084096;28;20506;-63
2023/12/12 02:58:27;;;;;;;0.40;0.40;;;;;;;2.81;100.00;96575.13;5084616;28;20048;-63
2023/12/12 03:00:54;;;;;;;0.40;0.40;;;;;;;3.27;100.00;96628.91;5082920;28;20090;-63
2023/12/12 03:03:20;;;;;;;0.40;0.40;;;;;;;3.68;100.00;96683.63;5084412;28;20078;-63
2023/12/12 03:05:47;;;;;;;0.40;0.40;;;;;;;3.44;100.00;96647.91;5087443;28;20519;-65
2023/12/12 03:08:14;;;;;;;0.40;0.40;;;;;;;3.65;100.00;96689.75;5088832;28;20055;-63
2023/12/12 03:10:41;;;;;;;0.40;0.40;;;;;;;3.36;100.00;96659.72;5087097;28;20059;-63
2023/12/12 03:13:08;;;;;;;0.40;0.40;;;;;;;1.31;100.00;96340.50;5086784;28;20055;-65
2023/12/12 03:15:35;;;;;;;0.40;0.40;;;;;;;3.12;100.00;96648.63;5087068;28;20562;-64
2023/12/12 03:18:02;;;;;;;0.40;0.40;;;;;;;3.50;100.00;96676.69;5086811;28;20494;-63
2023/12/12 03:20:29;;;;;;;0.50;0.50;;;;;;;3.40;100.00;96666.13;5088324;28;20055;-64
2023/12/12 03:22:55;;;;;;;0.40;0.40;;;;;;;3.22;100.00;96626.34;5086265;28;20074;-66
2023/12/12 03:25:22;;;;;;;0.30;0.30;;;;;;;2.80;100.00;96570.00;5086470;28;20132;-63
2023/12/12 03:27:49;;;;;;;0.40;0.40;;;;;;;3.50;100.00;96676.69;5087661;28;20048;-62
2023/12/12 03:30:16;;;;;;;0.38;0.38;;;;;;;3.15;100.00;96620.59;5088185;28;20143;-64
2023/12/12 03:32:43;;;;;;;0.40;0.40;;;;;;;3.45;100.00;96671.41;5085113;28;20051;-63
2023/12/12 03:35:10;;;;;;;0.40;0.40;;;;;;;3.47;100.00;96669.13;5072730;28;20374;-63
2023/12/12 03:37:36;;;;;;;0.40;0.40;;;;;;;2.91;100.00;96582.13;5088193;28;20063;-64
2023/12/12 03:40:04;;;;;;;0.32;0.32;;;;;;;3.51;100.00;96672.78;5086601;28;20050;-64
2023/12/12 03:42:31;;;;;;;0.40;0.40;;;;;;;3.30;100.00;96630.16;5086201;28;20125;-66
2023/12/12 03:44:58;;;;;;;0.40;0.40;;;;;;;3.55;100.00;96673.75;5087753;28;20099;-63
2023/12/12 03:47:24;;;;;;;0.40;0.40;;;;;;;3.02;100.00;96610.69;5087813;28;20063;-64
2023/12/12 03:49:51;;;;;;;0.40;0.40;;;;;;;3.49;100.00;96653.19;5087461;28;20506;-65
2023/12/12 03:52:18;;;;;;;0.40;0.40;;;;;;;3.37;100.00;96650.38;5088127;28;20076;-64
2023/12/12 03:54:45;;;;;;;0.40;0.40;;;;;;;3.26;100.00;96627.28;5087682;28;20047;-65
2023/12/12 03:57:12;;;;;;;0.40;0.40;;;;;;;2.94;100.00;96554.94;5087547;28;20129;-63
2023/12/12 03:59:39;;;;;;;0.40;0.40;;;;;;;3.87;100.00;96686.66;5086428;28;20130;-65
2023/12/12 04:02:06;;;;;;;0.40;0.40;;;;;;;3.96;100.00;96690.16;5086179;28;20048;-64
2023/12/12 04:04:33;;;;;;;0.45;0.45;;;;;;;2.21;100.00;96415.44;5087838;28;20083;-64
2023/12/12 04:07:00;;;;;;;0.40;0.40;;;;;;;4.08;100.00;96703.88;5086359;28;20131;-63
2023/12/12 04:09:27;;;;;;;0.40;0.40;;;;;;;3.32;100.00;96576.66;5087508;28;20083;-64
2023/12/12 04:11:53;;;;;;;0.40;0.40;;;;;;;4.14;100.00;96691.56;5087512;28;20549;-64
2023/12/12 04:14:20;;;;;;;0.40;0.40;;;;;;;3.69;100.00;96602.25;5087517;28;20056;-64
2023/12/12 04:16:47;;;;;;;0.47;0.47;;;;;;;3.94;100.00;96645.84;5087585;28;20075;-64
2023/12/12 04:19:14;;;;;;;0.45;0.45;;;;;;;3.18;100.00;96499.53;5085577;28;20054;-63
2023/12/12 04:21:42;;;;;;;0.50;0.50;;;;;;;4.28;100.00;96683.84;5087006;28;20071;-63
2023/12/12 04:24:09;;;;;;;0.47;0.47;;;;;;;4.17;100.00;96662.69;5086885;28;20453;-63
2023/12/12 04:26:36;;;;;;;0.40;0.40;;;;;;;3.87;100.00;96662.00;5085582;28;20054;-63
2023/12/12 04:29:04;;;;;;;0.40;0.40;;;;;;;3.35;100.00;96685.47;5087045;28;20054;-63
2023/12/12 04:31:31;;;;;;;0.30;0.30;;;;;;;2.94;100.00;96647.16;5085027;28;20518;-64
2023/12/12 04:33:58;;;;;;;0.40;0.40;;;;;;;3.13;100.00;96644.75;5085380;28;20577;-63
2023/12/12 04:36:25;;;;;;;0.40;0.40;;;;;;;3.50;100.00;96665.72;5086780;28;20050;-63
2023/12/12 04:38:52;;;;;;;0.40;0.40;;;;;;;3.80;100.00;96678.22;5087007;28;20048;-63
2023/12/12 04:41:19;;;;;;;0.40;0.40;;;;;;;3.58;100.00;96629.28;5086904;28;20052;-65
2023/12/12 04:43:45;;;;;;;0.40;0.40;;;;;;;3.89;100.00;96659.75;5087040;28;20064;-63
2023/12/12 04:46:19;;;;;;;0.40;0.40;;;;;;;3.95;100.00;96687.75;5085446;28;20056;-63
2023/12/12 04:48:46;;;;;;;0.40;0.40;;;;;;;3.99;100.00;96708.66;5086862;28;20099;-65
2023/12/12 04:51:14;;;;;;;0.40;0.40;;;;;;;3.79;100.00;96712.22;5085441;28;20165;-64
2023/12/12 04:53:40;;;;;;;0.40;0.40;;;;;;;3.44;100.00;96686.22;5086479;28;20522;-64
2023/12/12 04:56:07;;;;;;;0.40;0.40;;;;;;;3.84;100.00;96717.47;5086899;28;20586;-64
2023/12/12 04:58:34;;;;;;;0.40;0.40;;;;;;;3.80;100.00;96724.78;5086354;28;20052;-63
2023/12/12 05:01:01;;;;;;;0.40;0.40;;;;;;;2.94;100.00;96647.16;5085295;28;20091;-62
2023/12/12 05:03:28;;;;;;;0.40;0.40;;;;;;;3.47;100.00;96714.88;5085261;28;20127;-64
2023/12/12 05:05:55;;;;;;;0.40;0.40;;;;;;;3.60;100.00;96720.09;5084606;28;20138;-64
2023/12/12 05:08:22;;;;;;;0.43;0.43;;;;;;;3.66;100.00;96710.53;5086086;28;20062;-62
2023/12/12 05:10:49;;;;;;;0.30;0.30;;;;;;;3.48;100.00;96711.78;5086008;28;20089;-63
2023/12/12 05:13:15;;;;;;;0.40;0.40;;;;;;;3.12;100.00;96692.41;5084822;28;20090;-63
2023/12/12 05:15:42;;;;;;;0.40;0.40;;;;;;;1.96;100.00;96611.06;5085984;28;20536;-62
2023/12/12 05:18:09;;;;;;;0.40;0.40;;;;;;;3.02;100.00;96736.53;5084684;28;20567;-63
2023/12/12 05:20:36;;;;;;;0.35;0.35;;;;;;;2.77;100.00;96671.81;5084689;28;20056;-63
2023/12/12 05:23:03;;;;;;;0.40;0.40;;;;;;;2.85;100.00;96680.00;5085795;28;20129;-64
2023/12/12 05:25:30;;;;;;;0.30;0.30;;;;;;;3.33;100.00;96741.69;5084588;28;20375;-63
2023/12/12 05:27:56;;;;;;;0.40;0.40;;;;;;;3.38;100.00;96723.16;5071128;28;20072;-62
2023/12/12 05:30:23;;;;;;;0.40;0.40;;;;;;;3.27;100.00;96716.47;5066157;28;20052;-63
2023/12/12 05:32:50;;;;;;;0.40;0.40;;;;;;;3.29;100.00;96714.19;5065509;28;20063;-63
2023/12/12 05:35:17;;;;;;;0.40;0.40;;;;;;;3.28;100.00;96720.78;5070062;28;20079;-64
2023/12/12 05:37:44;;;;;;;0.38;0.38;;;;;;;2.92;100.00;96654.88;5085848;28;20394;-64
2023/12/12 05:40:17;;;;;;;0.40;0.40;;;;;;;2.72;100.00;96641.94;5085941;28;20437;-63
2023/12/12 05:42:44;;;;;;;0.40;0.40;;;;;;;3.07;100.00;96709.00;5086208;28;20062;-64
2023/12/12 05:45:11;;;;;;;0.40;0.40;;;;;;;2.95;100.00;96681.56;5084101;28;20059;-66
2023/12/12 07:07:11;;;;;;;0.40;0.40;;;;;;;2.63;100.00;96504.50;5052281;28;20149;-68
2023/12/12 07:09:41;;;;;;;0.40;0.40;;;;;;;4.43;100.00;96767.41;5072708;28;20453;-71
2023/12/12 07:12:10;;;;;;;0.47;0.47;;;;;;;4.90;100.00;96790.63;5081336;28;20062;-76
2023/12/12 07:14:43;;;;;;;0.50;0.50;;;;;;;5.20;100.00;96794.00;5072695;28;20139;-70
2023/12/12 07:17:37;;;;;;;0.50;0.50;;;;;;;5.33;98.10;96787.34;5082591;28;20059;-65
2023/12/12 07:20:11;;;;;;;0.50;0.50;;;;;;;5.48;98.72;96789.44;5069027;28;20316;-69
2023/12/12 07:22:50;;;;;;;0.40;0.40;;;;;;;4.65;99.47;96646.31;5068454;28;20116;-70
2023/12/12 07:25:17;;;;;;;0.50;0.50;;;;;;;5.91;98.48;96808.91;5067942;28;20056;-69
2023/12/12 07:28:17;;;;;;;0.60;0.60;;;;;;;5.70;96.98;96747.75;5078316;28;20790;-71
2023/12/12 07:30:47;;;;;;;0.50;0.50;;;;;;;5.99;96.66;96763.97;5070775;28;20046;-66
2023/12/12 07:33:29;;;;;;;0.50;0.50;;;;;;;6.15;93.89;96792.31;5023443;28;20652;-72
2023/12/12 07:35:59;;;;;;;0.60;0.60;;;;;;;6.55;91.76;96815.13;5047945;28;20125;-70
2023/12/12 07:38:28;;;;;;;0.60;0.60;;;;;;;5.52;90.51;96647.50;5069267;28;20329;-67
2023/12/12 07:40:55;;;;;;;0.60;0.60;;;;;;;6.73;87.79;96824.69;5048435;28;20178;-65
2023/12/12 07:43:30;;;;;;;0.60;0.60;;;;;;;6.92;89.04;96833.09;5062032;28;20080;-66
2023/12/12 07:46:04;;;;;;;0.60;0.60;;;;;;;7.14;88.73;96817.94;5047088;28;20127;-66
2023/12/12 07:48:38;;;;;;;0.60;0.60;;;;;;;7.34;87.93;96812.16;5084874;28;20048;-66
2023/12/12 07:51:07;;;;;;;0.60;0.60;;;;;;;7.21;85.77;96794.13;5082412;28;20542;-69
2023/12/12 07:53:36;;;;;;;0.60;0.60;;;;;;;7.36;83.93;96793.34;5082733;28;20048;-70
2023/12/12 07:56:16;;;;;;;0.60;0.60;;;;;;;7.63;84.08;96819.19;5065950;28;20052;-70
2023/12/12 07:58:47;;;;;;;0.70;0.70;;;;;;;7.74;82.64;96812.75;5072916;28;20060;-68
2023/12/12 08:01:18;;;;;;;0.60;0.60;;;;;;;7.92;81.77;96815.16;5083888;28;20048;-70
2023/12/12 08:03:50;;;;;;;0.70;0.70;;;;;;;8.01;81.92;96807.47;5082887;28;20063;-69
2023/12/12 08:06:38;;;;;;;0.65;0.65;;;;;;;7.71;82.12;96711.47;5053673;28;20463;-61
2023/12/12 08:09:30;;;;;;;0.70;0.70;;;;;;;8.60;81.95;96802.50;5066263;28;20048;-66
2023/12/12 08:11:59;;;;;;;0.70;0.70;;;;;;;8.90;80.11;96806.25;5073284;28;20130;-66
2023/12/12 08:14:38;;;;;;;0.77;0.77;;;;;;;9.26;79.10;96808.53;5050215;28;20059;-69
2023/12/12 08:17:09;;;;;;;0.70;0.70;;;;;;;8.25;75.83;96652.78;5066292;28;20053;-71
2023/12/12 08:19:51;;;;;;;0.80;0.80;;;;;;;7.73;74.53;96565.81;5066331;28;20467;-68
2023/12/12 08:22:21;;;;;;;0.80;0.80;;;;;;;8.74;74.74;96648.16;5067350;28;20480;-74
2023/12/12 08:24:54;;;;;;;0.80;0.80;;;;;;;9.80;69.48;96780.63;5083300;28;20048;-68
2023/12/12 08:27:38;;;;;;;;;;;;;;;10.08;69.53;96808.75;5096876;28;20478;-66
2023/12/12 08:30:30;;;;;;;0.80;0.80;;;;;;;10.07;71.05;96798.81;5081976;28;19924;-74
2023/12/12 08:33:01;;;;;;;0.80;0.80;;;;;;;9.76;69.73;96719.69;5077977;28;20051;-67
2023/12/12 08:35:55;;;;;;;0.80;0.80;;;;;;;10.35;68.59;96794.50;5084146;28;20217;-61
2023/12/12 08:38:36;;;;;;;0.80;0.80;;;;;;;9.27;68.87;96749.31;5052590;28;20048;-65
2023/12/12 08:41:16;;;;;;;0.80;0.80;;;;;;;9.80;69.24;96792.47;5062552;28;20059;-71
2023/12/12 08:43:49;;;;;;;0.80;0.80;;;;;;;8.60;70.87;96697.63;5063836;28;20478;-69
2023/12/12 08:46:30;;;;;;;0.80;0.80;;;;;;;9.64;71.55;96758.63;5057452;28;20586;-70
2023/12/12 08:49:00;;;;;;;0.70;0.70;;;;;;;9.93;71.62;96793.84;5034873;28;20484;-64
2023/12/12 08:51:47;;;;;;;0.80;0.80;;;;;;;9.82;69.43;96729.28;5074453;28;20608;-63
2023/12/12 08:54:16;;;;;;;0.70;0.70;;;;;;;8.99;68.72;96654.91;5059107;28;20063;-62
2023/12/12 08:56:52;;;;;;;0.80;0.80;;;;;;;9.00;70.60;96739.38;5062095;28;20145;-64
2023/12/12 08:59:22;;;;;;;0.80;0.80;;;;;;;9.65;71.08;96787.06;5064091;28;20052;-65
2023/12/12 09:01:52;;;;;;;0.80;0.80;;;;;;;9.72;70.90;96754.78;5063388;28;20049;-67
2023/12/12 09:04:39;;;;;;;0.90;0.90;;;;;;;9.88;71.53;96725.00;5056913;28;20052;-67
2023/12/12 09:07:40;;;;;;;0.80;0.80;;;;;;;9.97;70.70;96692.34;5064602;28;20062;-65
2023/12/12 09:10:20;;;;;;;0.90;0.90;;;;;;;10.29;68.55;96718.47;5065699;28;20055;-66
2023/12/12 09:12:48;;;;;;;0.80;0.80;;;;;;;11.03;67.21;96765.66;5065923;28;20045;-65
2023/12/12 09:15:23;;;;;;;0.90;0.90;;;;;;;10.84;63.49;96715.97;5065630;28;20064;-66
2023/12/12 09:17:58;;;;;;;0.80;0.80;;;;;;;9.65;64.65;96489.22;5086340;28;20438;-64
2023/12/12 09:20:58;;;;;;;0.90;0.90;;;;;;;11.53;65.78;96759.41;5087023;28;20048;-67
2023/12/12 09:23:34;;;;;;;0.85;0.85;;;;;;;11.75;65.52;96744.53;5092679;28;20595;-61
2023/12/12 09:26:14;;;;;;;0.90;0.90;;;;;;;11.72;64.97;96709.25;5084198;28;20044;-70
2023/12/12 09:28:53;;;;;;;0.90;0.90;;;;;;;12.03;64.61;96719.75;5068579;28;20051;-64
2023/12/12 09:31:43;;;;;;;1.00;1.00;;;;;;;12.36;62.95;96730.66;5082211;28;20051;-64
2023/12/12 09:34:39;;;;;;;1.08;1.08;;;;;;;12.51;60.50;96801.78;5086084;28;20403;-62
2023/12/12 09:37:28;;;;;;;0.90;0.90;;;;;;;12.33;62.30;96739.75;5078712;28;20430;-63
2023/12/12 09:40:24;;;;;;;0.95;0.95;;;;;;;11.59;61.30;96586.69;5061637;28;20145;-68
2023/12/12 09:43:04;;;;;;;1.10;1.10;;;;;;;12.79;59.13;96742.75;5076180;28;20057;-71
2023/12/12 09:45:50;;;;;;;1.10;1.10;;;;;;;12.90;60.12;96699.13;5066534;28;20056;-65
2023/12/12 09:48:52;;;;;;;1.02;1.02;;;;;;;13.46;59.28;96722.28;5047487;28;20057;-68
2023/12/12 09:51:46;;;;;;;1.10;1.10;;;;;;;13.79;58.11;96728.59;5091419;28;20055;-68
2023/12/12 09:54:44;;;;;;;1.10;1.10;;;;;;;13.87;56.01;96719.88;5099320;28;20052;-65
2023/12/12 09:57:44;;;;;;;1.10;1.10;;;;;;;13.69;56.67;96714.31;5072782;28;20060;-64
2023/12/12 10:00:47;;;;;;;1.10;1.10;;;;;;;13.12;55.38;96622.91;5041767;28;20079;-65
2023/12/12 10:03:44;;;;;;;1.10;1.10;;;;;;;13.40;54.95;96612.53;5100076;28;20059;-69
2023/12/12 10:06:21;;;;;;;1.10;1.10;;;;;;;13.82;54.61;96683.25;5092854;28;20142;-64
2023/12/12 10:09:01;;;;;;;1.13;1.13;;;;;;;13.63;54.55;96676.94;5072663;28;20040;-68
2023/12/12 10:11:44;;;;;;;1.10;1.10;;;;;;;12.03;54.03;96372.78;5102939;28;20056;-68
2023/12/12 10:14:54;;;;;;;1.10;1.10;;;;;;;13.39;54.83;96605.41;5105307;28;20510;-69
2023/12/12 10:18:15;;;;;;;1.20;1.20;;;;;;;13.34;56.94;96714.28;5063827;28;20052;-68
2023/12/12 10:21:28;;;;;;;1.20;1.20;;;;;;;13.69;56.55;96708.75;5063567;28;20091;-68
2023/12/12 10:28:21;;;;;;;1.02;1.02;;;;;;;13.44;56.44;96719.09;5040163;28;20053;-68
2023/12/12 10:31:54;;;;;;;1.00;1.00;;;;;;;13.40;56.19;96717.50;5041965;28;20144;-68
2023/12/12 10:34:37;;;;;;;1.05;1.05;;;;;;;12.95;56.87;96710.63;5045709;28;20056;-68
2023/12/12 10:37:30;;;;;;;1.20;1.20;;;;;;;13.36;55.52;96695.22;5042114;28;20084;-68
2023/12/12 10:52:27;;;;;;;;;;;;;;;;;;;;;
2023/12/12 10:55:20;;;;;;;1.23;1.23;;;;;;;13.89;52.25;96711.13;5061404;28;20071;-69
2023/12/12 10:58:06;;;;;;;1.20;1.20;;;;;;;13.98;52.76;96709.50;5061363;28;20067;-69
2023/12/12 11:00:52;;;;;;;1.02;1.02;;;;;;;13.00;54.51;96632.44;5046439;28;20459;-69
2023/12/12 11:03:25;;;;;;;1.05;1.05;;;;;;;13.52;54.27;96639.97;5061366;28;20163;-69
2023/12/12 11:06:31;;;;;;;1.10;1.10;;;;;;;14.19;54.15;96691.97;5047039;28;20131;-69
2023/12/12 11:12:05;;;;;;;1.40;1.40;;;;;;;14.58;52.09;96687.06;5062615;28;20060;-69
2023/12/12 11:15:04;;;;;;;1.30;1.30;;;;;;;14.75;52.05;96675.03;5082885;28;20510;-69
2023/12/12 11:17:47;;;;;;;1.30;1.30;;;;;;;14.63;52.54;96683.84;5084747;28;20468;-68
2023/12/12 11:20:26;;;;;;;1.38;1.38;;;;;;;14.57;52.06;96685.47;5083191;28;20174;-68
2023/12/12 11:23:09;;;;;;;1.40;1.40;;;;;;;14.39;53.11;96693.09;5074841;28;20048;-67
2023/12/12 11:26:01;;;;;;;;;;;;;;;14.57;52.49;96691.06;5065840;28;20131;-64
2023/12/12 11:28:56;;;;;;;1.20;1.20;;;;;;;13.90;53.70;96690.41;5093300;28;20023;-67
2023/12/12 11:31:43;;;;;;;1.10;1.10;;;;;;;14.00;54.33;96656.19;5087624;28;20173;-67
2023/12/12 11:35:01;;;;;;;1.20;1.20;;;;;;;14.43;52.62;96664.03;5090822;28;20052;-63
2023/12/12 11:38:05;;;;;;;1.10;1.10;;;;;;;14.37;52.72;96692.75;5086246;28;20056;-65
2023/12/12 11:41:16;;;;;;;1.20;1.20;;;;;;;13.80;52.50;96563.97;5074298;28;20056;-62
2023/12/12 11:44:50;;;;;;;1.20;1.20;;;;;;;14.80;51.04;96689.34;5066398;28;20129;-68
2023/12/12 11:47:47;;;;;;;1.20;1.20;;;;;;;15.13;50.04;96699.09;5079379;28;20052;-66
2023/12/12 11:50:46;;;;;;;1.30;1.30;;;;;;;13.70;50.10;96459.81;5085020;28;20052;-64
2023/12/12 11:53:47;;;;;;;1.20;1.20;;;;;;;14.16;50.00;96561.84;5095938;28;20066;-70
2023/12/12 11:56:54;;;;;;;1.20;1.20;;;;;;;14.96;50.50;96697.22;5065033;28;20049;-71
2023/12/12 11:59:55;;;;;;;1.42;1.42;;;;;;;14.12;50.51;96569.41;5077364;28;20162;-62
2023/12/12 12:02:32;;;;;;;1.30;1.30;;;;;;;14.73;50.36;96660.72;5071416;28;20049;-65
2023/12/12 12:05:28;;;;;;;1.38;1.38;;;;;;;14.80;50.48;96663.44;5065724;28;20108;-65
2023/12/12 12:09:03;;;;;;;1.10;1.10;;;;;;;14.73;50.75;96667.06;5078344;28;20048;-70
2023/12/12 12:11:53;;;;;;;1.20;1.20;;;;;;;14.53;50.89;96663.19;5092825;28;20130;-63
2023/12/12 12:18:40;;;;;;;1.17;1.17;;;;;;;14.09;51.23;96609.22;5051005;28;20067;-68
2023/12/12 12:21:57;;;;;;;1.10;1.10;;;;;;;14.22;51.34;96644.59;5028615;28;20592;-69
2023/12/12 12:25:02;;;;;;;1.20;1.20;;;;;;;13.36;51.90;96516.38;5066788;28;20458;-64
2023/12/12 12:28:05;;;;;;;1.10;1.10;;;;;;;14.20;51.95;96651.75;5050471;28;20053;-60
2023/12/12 12:31:38;;;;;;;1.10;1.10;;;;;;;13.74;52.47;96609.34;5066710;28;20123;-62
2023/12/12 12:37:57;;;;;;;1.17;1.17;;;;;;;13.71;52.93;96627.63;5042012;28;20063;-63
2023/12/12 12:40:42;;;;;;;1.30;1.30;;;;;;;13.89;52.62;96672.13;5053458;28;20067;-67
2023/12/12 12:43:33;;;;;;;1.10;1.10;;;;;;;13.90;53.30;96668.13;5083242;28;20063;-68
2023/12/12 12:46:25;;;;;;;1.10;1.10;;;;;;;13.98;53.11;96675.28;5084163;28;20052;-62
2023/12/12 12:49:03;;;;;;;1.02;1.02;;;;;;;13.91;52.93;96673.31;5071882;28;20144;-62
2023/12/12 12:51:56;;;;;;;1.30;1.30;;;;;;;12.99;53.09;96563.28;5046178;28;20053;-66
2023/12/12 12:54:39;;;;;;;1.10;1.10;;;;;;;13.29;53.39;96628.44;5077989;28;20148;-66
2023/12/12 12:57:25;;;;;;;1.20;1.20;;;;;;;12.23;52.90;96426.75;5078344;28;20134;-74
2023/12/12 12:59:59;;;;;;;1.00;1.00;;;;;;;13.82;53.46;96684.06;5069444;28;20080;-65
2023/12/12 13:02:34;;;;;;;1.05;1.05;;;;;;;13.85;53.30;96688.84;5101421;28;20074;-61
2023/12/12 13:05:29;;;;;;;1.10;1.10;;;;;;;13.48;53.32;96630.81;5106086;28;20047;-63
2023/12/12 13:08:30;;;;;;;1.15;1.15;;;;;;;13.85;52.89;96693.63;5105919;28;20536;-62
2023/12/12 13:11:23;;;;;;;1.10;1.10;;;;;;;11.82;53.07;96378.31;5048659;28;20048;-64
2023/12/12 13:14:07;;;;;;;1.20;1.20;;;;;;;13.60;53.73;96666.59;5075809;28;20443;-63
2023/12/12 13:16:51;;;;;;;1.10;1.10;;;;;;;13.65;53.34;96652.28;5079063;28;20052;-61
2023/12/12 13:20:04;;;;;;;1.27;1.27;;;;;;;13.81;53.88;96676.13;5080236;28;20105;-63
2023/12/12 13:26:15;;;;;;;1.10;1.10;;;;;;;13.83;53.37;96682.88;5073029;28;20062;-65
2023/12/12 13:29:54;;;;;;;1.25;1.25;;;;;;;14.03;53.35;96711.09;5065751;28;20586;-65
2023/12/12 13:32:40;;;;;;;1.10;1.10;;;;;;;13.54;53.41;96643.16;5080597;28;20134;-63
2023/12/12 13:35:37;;;;;;;1.20;1.20;;;;;;;13.56;54.11;96699.19;5064714;28;20392;-72
2023/12/12 13:38:46;;;;;;;1.20;1.20;;;;;;;13.78;54.21;96699.19;5070599;28;20054;-69
2023/12/12 13:41:19;;;;;;;1.10;1.10;;;;;;;13.54;53.98;96684.91;5086655;28;20407;-64
2023/12/12 13:43:46;;;;;;;1.20;1.20;;;;;;;13.38;54.45;96665.03;5084332;28;20535;-66
2023/12/12 13:46:14;;;;;;;1.10;1.10;;;;;;;13.28;54.46;96660.25;5084076;28;20056;-64
2023/12/12 13:48:41;;;;;;;1.10;1.10;;;;;;;13.90;54.29;96730.19;5085374;28;20052;-70
2023/12/12 13:51:08;;;;;;;1.20;1.20;;;;;;;13.78;54.55;96732.59;5083341;28;20149;-66
2023/12/12 13:53:38;;;;;;;1.10;1.10;;;;;;;13.60;54.57;96705.56;5070603;28;20820;-62
2023/12/12 13:56:06;;;;;;;1.10;1.10;;;;;;;13.78;54.76;96729.81;5100365;27;20126;-65
2023/12/12 13:58:33;;;;;;;1.10;1.10;;;;;;;13.37;54.70;96646.72;5092045;28;20048;-61
2023/12/12 14:01:00;;;;;;;1.20;1.20;;;;;;;13.58;54.76;96696.00;5078614;28;20419;-62
2023/12/12 14:03:27;;;;;;;1.20;1.20;;;;;;;13.77;54.45;96731.03;5072397;28;20563;-65
2023/12/12 14:05:54;;;;;;;1.27;1.27;;;;;;;13.20;55.13;96647.53;5071276;28;20045;-61
2023/12/12 14:08:21;;;;;;;1.10;1.10;;;;;;;13.66;54.93;96726.25;5079013;28;20089;-65
2023/12/12 14:10:48;;;;;;;1.10;1.10;;;;;;;13.33;54.92;96684.09;5080725;28;20052;-67
2023/12/12 14:13:15;;;;;;;1.02;1.02;;;;;;;13.41;54.85;96735.75;5065174;28;20048;-64